createdAt,value
2022-11-30T00:01:25.330Z,69.36
2022-11-30T00:03:55.405Z,69.47
2022-11-30T00:06:25.056Z,69.00
2022-11-30T00:08:55.835Z,69.50
2022-11-30T00:11:26.432Z,69.68
2022-11-30T00:13:55.142Z,69.73
2022-11-30T00:16:23.476Z,70.06
2022-11-30T00:18:52.250Z,69.52
2022-11-30T00:21:20.845Z,69.51
2022-11-30T00:23:49.779Z,69.16
2022-11-30T00:26:22.491Z,68.97
2022-11-30T00:28:50.936Z,70.11
2022-11-30T00:31:20.374Z,69.87
2022-11-30T00:33:48.867Z,69.60
2022-11-30T00:36:18.888Z,69.67
2022-11-30T00:38:47.629Z,70.05
2022-11-30T00:41:16.392Z,70.27
2022-11-30T00:43:46.614Z,70.78
2022-11-30T00:46:15.420Z,69.77
2022-11-30T00:48:43.713Z,70.59
2022-11-30T00:51:13.255Z,70.71
2022-11-30T00:53:42.443Z,71.14
2022-11-30T00:56:11.487Z,70.93
2022-11-30T00:58:40.164Z,70.60
2022-11-30T01:01:10.339Z,70.59
2022-11-30T01:03:38.923Z,70.94
2022-11-30T01:06:09.342Z,70.75
2022-11-30T01:08:37.930Z,70.43
2022-11-30T01:11:09.815Z,71.43
2022-11-30T01:13:38.082Z,71.05
2022-11-30T01:16:12.738Z,71.03
2022-11-30T01:18:41.087Z,71.65
2022-11-30T01:21:10.394Z,71.13
2022-11-30T01:23:38.668Z,71.56
2022-11-30T01:26:06.995Z,72.24
2022-11-30T01:28:35.800Z,72.15
2022-11-30T01:31:06.966Z,71.80
2022-11-30T01:33:37.219Z,71.62
2022-11-30T01:36:08.258Z,71.21
2022-11-30T01:38:38.719Z,71.57
2022-11-30T01:41:08.830Z,72.01
2022-11-30T01:43:42.684Z,71.75
2022-11-30T01:46:35.619Z,71.29
2022-11-30T01:49:18.179Z,72.01
2022-11-30T01:51:50.276Z,72.22
2022-11-30T01:54:23.207Z,72.88
2022-11-30T01:56:55.124Z,72.86
2022-11-30T01:59:26.525Z,72.57
2022-11-30T02:01:56.222Z,71.89
2022-11-30T02:04:29.750Z,72.32
2022-11-30T02:06:58.864Z,71.95
2022-11-30T02:09:28.923Z,71.08
2022-11-30T02:11:57.956Z,71.39
2022-11-30T02:14:34.863Z,71.10
2022-11-30T02:17:13.384Z,70.66
2022-11-30T02:20:05.888Z,70.75
2022-11-30T02:22:51.534Z,71.14
2022-11-30T02:25:28.901Z,70.85
2022-11-30T02:28:25.993Z,71.94
2022-11-30T02:30:58.226Z,71.53
2022-11-30T02:33:31.422Z,71.62
2022-11-30T02:36:02.013Z,72.01
2022-11-30T02:38:31.054Z,72.11
2022-11-30T02:40:59.254Z,71.16
2022-11-30T02:43:29.594Z,71.49
2022-11-30T02:46:08.217Z,71.64
2022-11-30T02:48:47.587Z,70.91
2022-11-30T02:51:20.018Z,71.42
2022-11-30T02:53:49.169Z,71.13
2022-11-30T02:56:19.954Z,71.23
2022-11-30T02:58:48.286Z,71.01
2022-11-30T03:01:18.001Z,71.27
2022-11-30T03:03:46.220Z,70.80
2022-11-30T03:06:14.490Z,70.82
2022-11-30T03:08:43.705Z,71.30
2022-11-30T03:11:11.916Z,71.59
2022-11-30T03:13:40.130Z,71.68
2022-11-30T03:16:09.522Z,72.55
2022-11-30T03:18:39.669Z,71.93
2022-11-30T03:21:09.494Z,72.38
2022-11-30T03:23:37.829Z,72.46
2022-11-30T03:26:08.180Z,72.35
2022-11-30T03:28:36.659Z,72.32
2022-11-30T03:31:05.569Z,72.55
2022-11-30T03:33:34.862Z,72.52
2022-11-30T03:36:06.964Z,72.56
2022-11-30T03:38:35.408Z,72.86
2022-11-30T03:41:05.402Z,72.89
2022-11-30T03:43:33.866Z,72.81
2022-11-30T03:46:02.364Z,73.13
2022-11-30T03:48:31.039Z,73.37
2022-11-30T03:50:59.498Z,73.06
2022-11-30T03:53:29.238Z,72.94
2022-11-30T03:56:00.168Z,72.89
2022-11-30T03:58:28.695Z,73.53
2022-11-30T04:01:01.673Z,72.58
2022-11-30T04:03:31.027Z,73.11
2022-11-30T04:05:59.380Z,72.83
2022-11-30T04:08:29.794Z,73.01
2022-11-30T04:10:59.809Z,72.87
2022-11-30T04:13:28.559Z,73.11
2022-11-30T04:15:57.061Z,73.13
2022-11-30T04:18:27.271Z,72.94
2022-11-30T04:20:57.210Z,73.21
2022-11-30T04:23:26.656Z,73.30
2022-11-30T04:25:56.333Z,73.42
2022-11-30T04:28:24.704Z,73.34
2022-11-30T04:30:54.392Z,73.65
2022-11-30T04:33:22.929Z,73.87
2022-11-30T04:35:55.436Z,73.87
2022-11-30T04:38:24.686Z,73.51
2022-11-30T04:40:53.155Z,73.38
2022-11-30T04:43:23.343Z,73.29
2022-11-30T04:45:51.842Z,73.58
2022-11-30T04:48:20.765Z,73.19
2022-11-30T04:50:49.999Z,73.40
2022-11-30T04:53:18.210Z,73.00
2022-11-30T04:55:46.461Z,72.64
2022-11-30T04:58:14.660Z,72.90
2022-11-30T05:00:46.351Z,72.79
2022-11-30T05:03:14.568Z,72.91
2022-11-30T05:05:42.909Z,73.08
2022-11-30T05:08:11.445Z,73.36
2022-11-30T05:10:39.688Z,73.22
2022-11-30T05:13:07.880Z,72.88
2022-11-30T05:15:36.103Z,73.00
2022-11-30T05:18:05.812Z,73.25
2022-11-30T05:20:33.982Z,73.21
2022-11-30T05:23:02.177Z,73.30
2022-11-30T05:25:30.351Z,73.23
2022-11-30T05:27:58.588Z,73.46
2022-11-30T05:30:26.823Z,73.82
2022-11-30T05:32:56.077Z,73.49
2022-11-30T05:35:25.797Z,73.56
2022-11-30T05:37:53.973Z,73.77
2022-11-30T05:40:22.176Z,73.90
2022-11-30T05:42:56.602Z,73.95
2022-11-30T05:45:25.118Z,73.92
2022-11-30T05:47:53.708Z,73.46
2022-11-30T05:50:22.563Z,73.81
2022-11-30T05:52:56.453Z,73.36
2022-11-30T05:55:25.230Z,73.30
2022-11-30T05:57:53.546Z,73.21
2022-11-30T06:00:22.883Z,72.73
2022-11-30T06:02:56.716Z,72.65
2022-11-30T06:05:25.131Z,72.74
2022-11-30T06:07:54.972Z,72.92
2022-11-30T06:10:25.413Z,73.00
2022-11-30T06:12:53.951Z,72.94
2022-11-30T06:15:22.125Z,72.64
2022-11-30T06:17:50.358Z,72.92
2022-11-30T06:20:18.641Z,72.59
2022-11-30T06:22:47.898Z,72.47
2022-11-30T06:25:17.704Z,72.54
2022-11-30T06:27:45.929Z,72.84
2022-11-30T06:30:15.439Z,72.63
2022-11-30T06:32:46.513Z,72.27
2022-11-30T06:35:15.006Z,72.40
2022-11-30T06:37:43.405Z,72.48
2022-11-30T06:40:13.933Z,72.73
2022-11-30T06:42:43.525Z,72.29
2022-11-30T06:45:12.079Z,72.99
2022-11-30T06:47:40.309Z,72.56
2022-11-30T06:50:09.861Z,72.65
2022-11-30T06:52:38.058Z,72.57
2022-11-30T06:55:07.037Z,72.52
2022-11-30T06:57:35.238Z,72.45
2022-11-30T07:00:06.254Z,72.86
2022-11-30T07:02:34.434Z,72.71
2022-11-30T07:05:02.725Z,72.38
2022-11-30T07:07:31.657Z,72.62
2022-11-30T07:10:00.236Z,72.54
2022-11-30T07:12:29.159Z,72.64
2022-11-30T07:14:57.427Z,72.52
2022-11-30T07:17:27.064Z,72.58
2022-11-30T07:19:55.344Z,72.86
2022-11-30T07:22:23.562Z,73.18
2022-11-30T07:25:09.348Z,73.25
2022-11-30T07:27:39.982Z,73.55
2022-11-30T07:30:12.295Z,73.66
2022-11-30T07:32:41.990Z,73.43
2022-11-30T07:35:11.253Z,74.17
2022-11-30T07:37:39.972Z,73.92
2022-11-30T07:40:09.618Z,74.18
2022-11-30T07:42:37.811Z,74.11
2022-11-30T07:45:06.917Z,74.64
2022-11-30T07:47:36.088Z,75.33
2022-11-30T07:50:06.232Z,75.56
2022-11-30T07:52:34.415Z,75.50
2022-11-30T07:55:02.653Z,74.43
2022-11-30T07:57:31.253Z,74.20
2022-11-30T07:59:59.495Z,73.96
2022-11-30T08:02:27.865Z,73.57
2022-11-30T08:04:58.575Z,73.20
2022-11-30T08:07:28.542Z,72.92
2022-11-30T08:09:57.085Z,73.03
2022-11-30T08:12:26.381Z,73.21
2022-11-30T08:15:19.190Z,72.61
2022-11-30T08:17:43.024Z,73.16
2022-11-30T08:20:12.826Z,74.28
2022-11-30T08:22:42.535Z,74.51
2022-11-30T08:25:11.118Z,74.50
2022-11-30T08:27:39.270Z,74.15
2022-11-30T08:30:08.799Z,74.03
2022-11-30T08:32:36.939Z,74.09
2022-11-30T08:35:05.962Z,73.51
2022-11-30T08:37:37.548Z,72.90
2022-11-30T08:40:08.639Z,71.97
2022-11-30T08:42:36.822Z,72.06
2022-11-30T08:45:05.623Z,71.50
2022-11-30T08:47:33.931Z,70.74
2022-11-30T08:50:02.243Z,70.99
2022-11-30T08:52:30.660Z,70.60
2022-11-30T08:54:58.838Z,70.43
2022-11-30T08:57:28.512Z,70.50
2022-11-30T08:59:56.734Z,69.75
2022-11-30T09:02:25.091Z,69.36
2022-11-30T09:04:53.664Z,69.31
2022-11-30T09:07:22.040Z,68.83
2022-11-30T09:09:50.212Z,69.21
2022-11-30T09:12:18.433Z,69.46
2022-11-30T09:14:55.917Z,69.58
2022-11-30T09:17:26.284Z,69.19
2022-11-30T09:19:54.786Z,69.08
2022-11-30T09:22:23.095Z,68.95
2022-11-30T09:24:51.248Z,68.11
2022-11-30T09:27:19.667Z,67.98
2022-11-30T09:29:49.233Z,67.79
2022-11-30T09:32:17.573Z,67.35
2022-11-30T09:34:46.376Z,68.37
2022-11-30T09:37:14.797Z,68.13
2022-11-30T09:39:42.987Z,68.14
2022-11-30T09:42:26.387Z,68.53
2022-11-30T09:45:03.643Z,68.55
2022-11-30T09:47:57.572Z,68.50
2022-11-30T09:50:29.015Z,67.44
2022-11-30T09:53:00.181Z,67.52
2022-11-30T09:55:31.901Z,67.23
2022-11-30T09:58:04.108Z,67.04
2022-11-30T10:00:37.042Z,65.86
2022-11-30T10:03:07.388Z,63.92
2022-11-30T10:05:46.641Z,64.06
2022-11-30T10:08:30.644Z,63.42
2022-11-30T10:11:12.986Z,63.09
2022-11-30T10:13:55.784Z,62.68
2022-11-30T10:16:35.259Z,61.40
2022-11-30T10:19:12.429Z,60.56
2022-11-30T10:21:53.492Z,59.37
2022-11-30T10:24:33.750Z,60.01
2022-11-30T10:27:13.565Z,60.14
2022-11-30T10:29:44.177Z,59.69
2022-11-30T10:32:23.559Z,59.38
2022-11-30T10:34:56.127Z,58.99
2022-11-30T10:37:34.218Z,59.11
2022-11-30T10:40:06.711Z,57.91
2022-11-30T10:42:42.385Z,57.14
2022-11-30T10:45:14.661Z,57.17
2022-11-30T10:47:50.150Z,57.79
2022-11-30T10:50:19.319Z,57.47
2022-11-30T10:52:52.382Z,57.49
2022-11-30T10:55:23.256Z,58.20
2022-11-30T10:57:57.249Z,56.91
2022-11-30T11:00:25.644Z,55.72
2022-11-30T11:02:55.359Z,56.05
2022-11-30T11:05:26.108Z,56.41
2022-11-30T11:08:01.437Z,56.23
2022-11-30T11:10:36.970Z,56.17
2022-11-30T11:13:06.101Z,56.47
2022-11-30T11:15:36.488Z,55.77
2022-11-30T11:18:23.682Z,55.64
2022-11-30T11:21:06.232Z,54.94
2022-11-30T11:23:37.609Z,56.06
2022-11-30T11:26:07.573Z,56.98
2022-11-30T11:28:37.335Z,57.09
2022-11-30T11:31:19.850Z,56.01
2022-11-30T11:33:54.786Z,56.42
2022-11-30T11:36:30.690Z,56.76
2022-11-30T11:39:00.598Z,56.44
2022-11-30T11:41:31.533Z,56.04
2022-11-30T11:44:03.709Z,55.43
2022-11-30T11:46:33.512Z,54.72
2022-11-30T11:49:05.581Z,55.45
2022-11-30T11:51:35.350Z,55.10
2022-11-30T11:54:13.949Z,55.37
2022-11-30T11:56:42.777Z,54.81
2022-11-30T11:59:16.840Z,55.48
2022-11-30T12:02:00.270Z,54.90
2022-11-30T12:04:46.904Z,54.19
2022-11-30T12:07:22.162Z,54.14
2022-11-30T12:10:02.705Z,54.34
2022-11-30T12:12:31.474Z,54.61
2022-11-30T12:14:59.759Z,54.49
2022-11-30T12:17:42.889Z,54.83
2022-11-30T12:20:24.757Z,56.05
2022-11-30T12:23:05.231Z,55.40
2022-11-30T12:25:39.371Z,54.24
2022-11-30T12:28:21.025Z,53.88
2022-11-30T12:31:11.662Z,54.50
2022-11-30T12:33:53.854Z,54.41
2022-11-30T12:36:34.642Z,54.88
2022-11-30T12:39:10.274Z,54.83
2022-11-30T12:41:44.338Z,55.03
2022-11-30T12:44:28.988Z,54.87
2022-11-30T12:47:06.855Z,54.47
2022-11-30T12:49:50.124Z,55.56
2022-11-30T12:52:36.937Z,55.23
2022-11-30T12:55:16.065Z,54.53
2022-11-30T12:57:50.690Z,55.29
2022-11-30T13:00:22.399Z,54.63
2022-11-30T13:03:24.273Z,54.32
2022-11-30T13:05:57.965Z,54.32
2022-11-30T13:08:33.186Z,54.92
2022-11-30T13:11:06.936Z,54.49
2022-11-30T13:13:37.407Z,54.67
2022-11-30T13:16:09.544Z,55.13
2022-11-30T13:18:38.310Z,54.72
2022-11-30T13:21:17.018Z,54.31
2022-11-30T13:23:56.274Z,53.59
2022-11-30T13:26:30.904Z,53.77
2022-11-30T13:29:14.338Z,53.65
2022-11-30T13:31:47.174Z,54.19
2022-11-30T13:34:26.745Z,54.54
2022-11-30T13:37:05.400Z,54.57
2022-11-30T13:39:49.394Z,54.38
2022-11-30T13:42:34.732Z,54.17
2022-11-30T13:45:27.044Z,54.08
2022-11-30T13:47:59.314Z,54.22
2022-11-30T13:50:37.468Z,53.74
2022-11-30T13:53:25.036Z,53.61
2022-11-30T13:56:07.772Z,53.60
2022-11-30T13:58:37.150Z,53.85
2022-11-30T14:01:36.471Z,52.63
2022-11-30T14:04:32.629Z,52.61
2022-11-30T14:07:01.129Z,52.58
2022-11-30T14:09:58.390Z,52.84
2022-11-30T14:12:48.504Z,53.22
2022-11-30T14:15:45.290Z,53.75
2022-11-30T14:18:21.777Z,53.00
2022-11-30T14:20:53.867Z,52.68
2022-11-30T14:23:26.133Z,52.95
2022-11-30T14:25:57.824Z,52.52
2022-11-30T14:28:33.518Z,52.05
2022-11-30T14:31:02.100Z,52.78
2022-11-30T14:33:41.848Z,52.57
2022-11-30T14:36:11.562Z,52.64
2022-11-30T14:38:42.614Z,52.51
2022-11-30T14:41:21.611Z,52.32
2022-11-30T14:44:06.717Z,53.14
2022-11-30T14:46:36.342Z,53.12
2022-11-30T14:49:16.219Z,52.42
2022-11-30T14:51:47.857Z,53.55
2022-11-30T14:54:36.106Z,53.33
2022-11-30T14:57:10.097Z,53.34
2022-11-30T14:59:48.447Z,53.80
2022-11-30T15:02:27.531Z,54.21
2022-11-30T15:04:57.832Z,54.15
2022-11-30T15:07:27.277Z,54.21
2022-11-30T15:10:03.661Z,54.25
2022-11-30T15:12:32.811Z,54.87
2022-11-30T15:15:20.428Z,54.88
2022-11-30T15:17:55.000Z,55.30
2022-11-30T15:20:32.171Z,54.87
2022-11-30T15:23:01.385Z,55.14
2022-11-30T15:25:35.940Z,55.19
2022-11-30T15:28:05.249Z,55.14
2022-11-30T15:30:39.814Z,55.42
2022-11-30T15:33:08.423Z,55.69
2022-11-30T15:35:57.390Z,56.03
2022-11-30T15:38:27.393Z,56.12
2022-11-30T15:41:03.600Z,55.82
2022-11-30T15:43:38.080Z,56.12
2022-11-30T15:46:08.626Z,56.68
2022-11-30T15:48:40.376Z,56.52
2022-11-30T15:51:17.621Z,56.93
2022-11-30T15:53:50.955Z,57.29
2022-11-30T15:56:26.859Z,56.98
2022-11-30T15:59:05.116Z,57.51
2022-11-30T16:02:01.956Z,58.02
2022-11-30T16:05:21.484Z,58.44
2022-11-30T16:07:52.055Z,59.07
2022-11-30T16:10:23.982Z,60.22
2022-11-30T16:12:53.828Z,60.19
2022-11-30T16:15:24.775Z,60.30
2022-11-30T16:17:57.190Z,60.56
2022-11-30T16:20:25.999Z,60.95
2022-11-30T16:22:56.605Z,60.24
2022-11-30T16:25:28.544Z,60.39
2022-11-30T16:27:57.999Z,59.92
2022-11-30T16:30:26.488Z,59.91
2022-11-30T16:32:56.577Z,59.21
2022-11-30T16:35:26.855Z,58.56
2022-11-30T16:37:55.135Z,58.51
2022-11-30T16:40:23.407Z,57.15
2022-11-30T16:42:52.425Z,56.56
2022-11-30T16:45:22.838Z,56.65
2022-11-30T16:47:51.736Z,56.35
2022-11-30T16:50:21.498Z,56.39
2022-11-30T16:52:49.948Z,56.13
2022-11-30T16:55:20.343Z,56.38
2022-11-30T16:57:49.686Z,56.86
2022-11-30T17:00:20.729Z,56.56
2022-11-30T17:02:56.831Z,56.44
2022-11-30T17:05:26.982Z,55.42
2022-11-30T17:07:55.927Z,56.40
2022-11-30T17:10:24.296Z,55.87
2022-11-30T17:12:52.512Z,55.53
2022-11-30T17:15:23.385Z,55.95
2022-11-30T17:17:51.903Z,56.91
2022-11-30T17:20:20.234Z,56.74
2022-11-30T17:22:49.924Z,56.23
2022-11-30T17:25:20.581Z,57.03
2022-11-30T17:27:50.236Z,57.28
2022-11-30T17:30:22.224Z,57.44
2022-11-30T17:32:50.806Z,58.77
2022-11-30T17:35:23.153Z,58.46
2022-11-30T17:37:54.811Z,59.24
2022-11-30T17:40:23.080Z,59.24
2022-11-30T17:42:51.242Z,59.94
2022-11-30T17:45:19.517Z,60.16
2022-11-30T17:47:47.676Z,58.75
2022-11-30T17:50:16.138Z,59.13
2022-11-30T17:52:44.334Z,60.01
2022-11-30T17:55:14.031Z,60.98
2022-11-30T17:57:42.161Z,60.44
2022-11-30T18:00:11.308Z,59.89
2022-11-30T18:02:39.595Z,59.88
2022-11-30T18:05:08.607Z,60.38
2022-11-30T18:07:37.363Z,60.49
2022-11-30T18:10:06.355Z,60.27
2022-11-30T18:12:36.156Z,60.05
2022-11-30T18:15:04.830Z,59.69
2022-11-30T18:17:33.691Z,60.40
2022-11-30T18:20:02.185Z,59.74
2022-11-30T18:22:30.949Z,59.91
2022-11-30T18:24:59.231Z,58.63
2022-11-30T18:27:27.640Z,59.63
2022-11-30T18:29:57.409Z,59.75
2022-11-30T18:32:25.702Z,59.14
2022-11-30T18:34:54.000Z,59.04
2022-11-30T18:37:22.155Z,59.70
2022-11-30T18:39:50.376Z,59.99
2022-11-30T18:42:18.653Z,59.92
2022-11-30T18:44:47.201Z,60.79
2022-11-30T18:47:17.023Z,60.67
2022-11-30T18:49:45.319Z,61.92
2022-11-30T18:52:13.601Z,61.96
2022-11-30T18:54:41.724Z,62.42
2022-11-30T18:57:09.981Z,62.05
2022-11-30T18:59:38.106Z,61.56
2022-11-30T19:02:06.415Z,62.22
2022-11-30T19:04:36.191Z,61.37
2022-11-30T19:07:04.469Z,61.49
2022-11-30T19:09:32.770Z,61.83
2022-11-30T19:12:01.067Z,62.29
2022-11-30T19:14:29.484Z,62.21
2022-11-30T19:17:00.517Z,62.36
2022-11-30T19:19:30.325Z,62.61
2022-11-30T19:21:59.923Z,62.22
2022-11-30T19:24:30.118Z,62.43
2022-11-30T19:26:58.327Z,63.09
2022-11-30T19:29:26.587Z,63.22
2022-11-30T19:31:54.839Z,63.48
2022-11-30T19:34:23.066Z,62.87
2022-11-30T19:36:53.310Z,62.38
2022-11-30T19:39:23.026Z,62.31
2022-11-30T19:41:51.283Z,62.39
2022-11-30T19:44:19.601Z,63.11
2022-11-30T19:46:47.947Z,63.23
2022-11-30T19:49:16.233Z,63.18
2022-11-30T19:51:44.446Z,63.37
2022-11-30T19:54:12.954Z,63.50
2022-11-30T19:56:44.355Z,63.69
2022-11-30T19:59:12.645Z,63.54
2022-11-30T20:01:40.995Z,64.75
2022-11-30T20:04:09.350Z,64.41
2022-11-30T20:06:38.749Z,64.64
2022-11-30T20:09:08.644Z,64.98
2022-11-30T20:11:37.021Z,65.14
2022-11-30T20:14:07.109Z,65.20
2022-11-30T20:16:35.322Z,65.15
2022-11-30T20:19:03.751Z,65.06
2022-11-30T20:21:33.606Z,65.00
2022-11-30T20:24:04.967Z,65.32
2022-11-30T20:26:34.346Z,65.69
2022-11-30T20:29:04.401Z,65.81
2022-11-30T20:31:36.354Z,66.02
2022-11-30T20:34:04.981Z,66.09
2022-11-30T20:36:33.236Z,66.63
2022-11-30T20:39:02.947Z,66.75
2022-11-30T20:41:31.283Z,66.94
2022-11-30T20:43:59.452Z,67.33
2022-11-30T20:46:29.745Z,67.34
2022-11-30T20:49:00.455Z,67.36
2022-11-30T20:51:32.061Z,67.51
2022-11-30T20:54:02.665Z,67.64
2022-11-30T20:56:31.320Z,68.39
2022-11-30T20:59:02.651Z,68.12
2022-11-30T21:01:31.078Z,68.26
2022-11-30T21:04:01.183Z,68.78
2022-11-30T21:06:30.333Z,69.09
2022-11-30T21:08:59.267Z,69.02
2022-11-30T21:11:29.554Z,69.21
2022-11-30T21:13:59.244Z,68.96
2022-11-30T21:16:29.498Z,69.35
2022-11-30T21:19:01.733Z,68.91
2022-11-30T21:21:31.940Z,68.77
2022-11-30T21:24:01.820Z,68.47
2022-11-30T21:26:32.417Z,67.99
2022-11-30T21:29:02.813Z,68.83
2022-11-30T21:31:31.936Z,68.42
2022-11-30T21:34:03.453Z,68.58
2022-11-30T21:36:31.701Z,68.27
2022-11-30T21:39:05.579Z,67.68
2022-11-30T21:41:35.031Z,67.34
2022-11-30T21:44:03.593Z,67.60
2022-11-30T21:46:31.979Z,68.16
2022-11-30T21:49:00.213Z,68.45
2022-11-30T21:51:31.844Z,68.36
2022-11-30T21:54:01.818Z,68.61
2022-11-30T21:56:31.495Z,68.34
2022-11-30T21:59:00.276Z,68.11
2022-11-30T22:01:30.840Z,67.97
2022-11-30T22:04:00.332Z,67.53
2022-11-30T22:06:31.692Z,68.56
2022-11-30T22:09:03.521Z,68.50
2022-11-30T22:11:32.576Z,68.52
2022-11-30T22:14:00.934Z,67.73
2022-11-30T22:16:35.520Z,67.55
2022-11-30T22:19:05.626Z,66.85
2022-11-30T22:21:35.983Z,66.60
2022-11-30T22:24:06.017Z,66.76
2022-11-30T22:26:36.098Z,66.67
2022-11-30T22:29:06.509Z,67.13
2022-11-30T22:31:37.571Z,67.18
2022-11-30T22:34:06.490Z,67.05
2022-11-30T22:36:38.999Z,66.98
2022-11-30T22:39:10.064Z,67.33
2022-11-30T22:41:39.480Z,66.59
2022-11-30T22:44:08.223Z,66.52
2022-11-30T22:46:38.088Z,66.38
2022-11-30T22:49:09.458Z,66.26
2022-11-30T22:51:39.219Z,66.39
2022-11-30T22:54:08.141Z,66.69
2022-11-30T22:56:37.786Z,66.35
2022-11-30T22:59:06.772Z,66.28
2022-11-30T23:01:37.091Z,65.97
2022-11-30T23:04:07.430Z,66.13
2022-11-30T23:06:36.558Z,66.17
2022-11-30T23:09:08.709Z,66.15
2022-11-30T23:11:37.271Z,66.15
2022-11-30T23:14:08.234Z,66.28
2022-11-30T23:16:37.104Z,66.38
2022-11-30T23:19:06.485Z,66.20
2022-11-30T23:21:43.615Z,66.17
2022-11-30T23:24:26.044Z,65.71
2022-11-30T23:26:59.249Z,65.98
2022-11-30T23:29:27.571Z,66.24
2022-11-30T23:31:57.832Z,66.48
2022-11-30T23:34:26.151Z,66.30
2022-11-30T23:36:54.301Z,66.78
2022-11-30T23:39:25.036Z,67.09
2022-11-30T23:41:53.563Z,67.54
2022-11-30T23:44:22.571Z,67.42
2022-11-30T23:46:50.904Z,67.27
2022-11-30T23:49:19.260Z,67.04
2022-11-30T23:51:47.666Z,66.79
2022-11-30T23:54:15.920Z,66.88
2022-11-30T23:56:45.663Z,66.86
2022-11-30T23:59:13.991Z,66.79
